SBOSBO TRD / ENVA
Speedbird OnlineSpeedbird Online TRD / ENVA

Trondheim Airport Værnes
17:25 21°C

Location Trondheim, Norway
Latitude: 63.4578018
Longitude: 10.9239998
Local Time 17:25 on 30 May 2024
UTC +2 hours (Europe/Oslo)
Currency £1 equals NOK 13.42
METAR ENVA 301450Z 25005KT 210V280 CAVOK 20/10 Q1010 NOSIG RMK WIND 670FT 31005KT
TAF TAF ENVA 301100Z 3012/3112 26010KT 9999 FEW040 BKN080 TEMPO 3015/3022 SHRA BKN030CB PROB30 TEMPO 3016/3020 TS BECMG 3017/3019 12006KT BECMG 3107/3109 27010KT
Weather As Of 30 May 2024 17:25
Description Clear sky
Wind 9 km/h from West (260°)
Cloud Cover 0%
Precipitation Rain: none, Snow: none
Sunrise 03:26
Sunset 23:01
Web Airport Website | Wikipedia
Codes IATA: TRD
ICAO: ENVA
Altitude 17 Meter / 56 Feet
Distance 1,473 KM / 915 Miles
from London.
Runways
RunwayLength (m)Surface
092759Asphalt
13540Asphalt
14340Asphalt
272759Asphalt
31540Asphalt
32340Asphalt
Radio
TypeDescriptionFrequency
APPAPP118.6
ATISATIS127.55
GNDVærnes ground121.6
TWRTWR119.4
Live ATC



Support Speedbird Online

© 2017-2024 Speedbird Online